createdAt,value
2017-12-13T00:01:14.890Z,72.30
2017-12-13T00:03:42.457Z,72.90
2017-12-13T00:06:11.003Z,73.10
2017-12-13T00:08:38.560Z,72.80
2017-12-13T00:11:06.091Z,72.90
2017-12-13T00:13:35.630Z,71.90
2017-12-13T00:16:03.158Z,72.10
2017-12-13T00:18:31.460Z,71.00
2017-12-13T00:20:59.020Z,71.00
2017-12-13T00:23:26.586Z,71.10
2017-12-13T00:25:54.887Z,71.60
2017-12-13T00:28:22.434Z,71.60
2017-12-13T00:30:49.999Z,71.80
2017-12-13T00:33:17.532Z,71.20
2017-12-13T00:35:45.214Z,71.20
2017-12-13T00:38:12.743Z,71.70
2017-12-13T00:40:41.055Z,71.40
2017-12-13T00:43:08.576Z,71.40
2017-12-13T00:45:38.011Z,72.40
2017-12-13T00:48:05.531Z,72.20
2017-12-13T00:50:33.090Z,71.50
2017-12-13T00:53:01.387Z,70.80
2017-12-13T00:55:28.919Z,70.80
2017-12-13T00:57:56.469Z,71.60
2017-12-13T01:00:23.995Z,71.10
2017-12-13T01:02:53.498Z,70.90
2017-12-13T01:05:21.029Z,70.80
2017-12-13T01:07:48.581Z,69.90
2017-12-13T01:10:16.107Z,68.80
2017-12-13T01:12:43.655Z,69.80
2017-12-13T01:15:11.199Z,69.50
2017-12-13T01:17:38.759Z,68.70
2017-12-13T01:20:06.288Z,70.30
2017-12-13T01:22:33.813Z,69.10
2017-12-13T01:25:02.151Z,69.70
2017-12-13T01:27:29.671Z,69.70
2017-12-13T01:29:57.226Z,70.00
2017-12-13T01:32:24.740Z,69.80
2017-12-13T01:34:52.291Z,69.70
2017-12-13T01:37:19.819Z,68.70
2017-12-13T01:39:47.371Z,68.30
2017-12-13T01:42:14.903Z,68.90
2017-12-13T01:44:42.459Z,69.70
2017-12-13T01:47:09.979Z,69.30
2017-12-13T01:49:37.532Z,69.20
2017-12-13T01:52:05.057Z,68.90
2017-12-13T01:54:32.619Z,69.50
2017-12-13T01:57:01.097Z,70.30
2017-12-13T01:59:28.623Z,70.60
2017-12-13T02:01:56.171Z,69.70
2017-12-13T02:04:23.705Z,69.30
2017-12-13T02:06:51.251Z,69.40
2017-12-13T02:09:18.770Z,68.40
2017-12-13T02:11:46.322Z,68.10
2017-12-13T02:14:14.607Z,70.20
2017-12-13T02:16:42.935Z,69.80
2017-12-13T02:19:11.431Z,69.80
2017-12-13T02:21:38.990Z,69.40
2017-12-13T02:24:06.515Z,69.80
2017-12-13T02:26:34.083Z,70.00
2017-12-13T02:29:01.619Z,70.50
2017-12-13T02:31:29.140Z,69.30
2017-12-13T02:33:56.702Z,69.70
2017-12-13T02:36:25.973Z,69.80
2017-12-13T02:38:53.519Z,69.70
2017-12-13T02:41:21.036Z,70.00
2017-12-13T02:43:49.365Z,69.20
2017-12-13T02:46:16.887Z,69.10
2017-12-13T02:48:44.446Z,68.80
2017-12-13T02:51:11.973Z,69.20
2017-12-13T02:53:40.322Z,69.90
2017-12-13T02:56:07.843Z,69.90
2017-12-13T02:58:35.391Z,69.70
2017-12-13T03:01:02.906Z,69.50
2017-12-13T03:03:30.433Z,69.80
2017-12-13T03:05:57.991Z,70.20
2017-12-13T03:08:25.511Z,70.20
2017-12-13T03:10:53.831Z,71.20
2017-12-13T03:13:21.347Z,71.20
2017-12-13T03:15:50.852Z,70.70
2017-12-13T03:18:20.095Z,70.90
2017-12-13T03:20:47.658Z,70.90
2017-12-13T03:23:15.179Z,71.50
2017-12-13T03:25:43.474Z,71.20
2017-12-13T03:28:11.027Z,71.20
2017-12-13T03:30:38.562Z,71.10
2017-12-13T03:33:06.119Z,71.60
2017-12-13T03:35:33.646Z,71.70
2017-12-13T03:38:01.978Z,71.90
2017-12-13T03:40:29.504Z,71.70
2017-12-13T03:42:58.760Z,72.60
2017-12-13T03:45:26.279Z,72.90
2017-12-13T03:47:53.845Z,72.00
2017-12-13T03:50:21.373Z,71.80
2017-12-13T03:52:49.691Z,71.80
2017-12-13T03:55:17.211Z,71.80
2017-12-13T03:57:45.502Z,72.50
2017-12-13T04:00:13.819Z,73.90
2017-12-13T04:02:41.348Z,73.80
2017-12-13T04:05:08.899Z,73.10
2017-12-13T04:07:37.192Z,72.90
2017-12-13T04:10:04.771Z,72.80
2017-12-13T04:12:32.330Z,73.30
2017-12-13T04:14:59.860Z,74.10
2017-12-13T04:17:27.424Z,73.90
2017-12-13T04:19:54.951Z,73.60
2017-12-13T04:22:24.467Z,73.40
2017-12-13T04:24:52.759Z,73.90
2017-12-13T04:27:20.283Z,73.90
2017-12-13T04:29:47.835Z,73.80
2017-12-13T04:32:15.359Z,73.50
2017-12-13T04:34:44.841Z,73.80
2017-12-13T04:37:12.974Z,74.00
2017-12-13T04:39:40.522Z,74.10
2017-12-13T04:42:08.068Z,74.60
2017-12-13T04:44:35.586Z,74.50
2017-12-13T04:47:03.127Z,74.70
2017-12-13T04:49:33.155Z,74.50
2017-12-13T04:52:00.714Z,74.40
2017-12-13T04:54:28.991Z,74.70
2017-12-13T04:56:57.312Z,75.10
2017-12-13T04:59:24.827Z,75.10
2017-12-13T05:01:52.359Z,75.20
2017-12-13T05:04:19.902Z,74.70
2017-12-13T05:06:47.427Z,75.20
2017-12-13T05:09:14.983Z,75.10
2017-12-13T05:11:42.515Z,74.80
2017-12-13T05:14:10.057Z,75.50
2017-12-13T05:16:37.599Z,75.30
2017-12-13T05:19:05.127Z,75.50
2017-12-13T05:21:32.678Z,74.90
2017-12-13T05:24:00.219Z,75.00
2017-12-13T05:26:27.743Z,74.30
2017-12-13T05:28:55.292Z,75.50
2017-12-13T05:31:22.815Z,75.20
2017-12-13T05:33:50.370Z,75.00
2017-12-13T05:36:18.827Z,75.50
2017-12-13T05:38:46.360Z,75.50
2017-12-13T05:41:13.921Z,74.20
2017-12-13T05:43:41.448Z,74.00
2017-12-13T05:46:08.994Z,74.30
2017-12-13T05:48:36.519Z,74.10
2017-12-13T05:51:04.043Z,74.50
2017-12-13T05:53:31.597Z,75.50
2017-12-13T05:56:00.071Z,74.80
2017-12-13T05:58:27.622Z,75.90
2017-12-13T06:01:02.447Z,76.20
2017-12-13T06:03:30.148Z,75.80
2017-12-13T06:05:57.666Z,75.20
2017-12-13T06:08:25.187Z,75.50
2017-12-13T06:10:55.523Z,74.70
2017-12-13T06:13:24.015Z,75.40
2017-12-13T06:15:51.565Z,75.00
2017-12-13T06:18:19.083Z,74.80
2017-12-13T06:20:48.606Z,74.10
2017-12-13T06:23:16.124Z,73.90
2017-12-13T06:25:43.639Z,74.10
2017-12-13T06:28:13.179Z,74.50
2017-12-13T06:30:40.703Z,74.80
2017-12-13T06:33:08.253Z,74.50
2017-12-13T06:35:35.779Z,74.60
2017-12-13T06:41:01.427Z,75.60
2017-12-13T06:43:31.023Z,74.60
2017-12-13T06:45:58.527Z,75.60
2017-12-13T06:48:26.056Z,75.30
2017-12-13T06:50:54.383Z,75.60
2017-12-13T06:53:21.922Z,75.50
2017-12-13T06:55:49.585Z,76.20
2017-12-13T06:58:18.096Z,75.80
2017-12-13T07:00:46.504Z,75.30
2017-12-13T07:03:14.071Z,76.30
2017-12-13T07:05:41.614Z,75.90
2017-12-13T07:08:09.176Z,75.20
2017-12-13T07:10:36.704Z,74.60
2017-12-13T07:13:04.238Z,74.50
2017-12-13T07:15:31.787Z,75.10
2017-12-13T07:17:59.311Z,74.20
2017-12-13T07:20:26.871Z,73.60
2017-12-13T07:22:55.167Z,73.80
2017-12-13T07:25:22.698Z,74.50
2017-12-13T07:27:50.246Z,73.60
2017-12-13T07:30:17.791Z,73.90
2017-12-13T07:32:45.353Z,73.90
2017-12-13T07:35:13.900Z,73.20
2017-12-13T07:37:41.432Z,73.10
2017-12-13T07:40:09.755Z,73.80
2017-12-13T07:42:37.299Z,73.70
2017-12-13T07:45:04.883Z,73.50
2017-12-13T07:47:32.411Z,72.90
2017-12-13T07:49:59.976Z,73.80
2017-12-13T07:52:27.500Z,73.10
2017-12-13T07:54:55.055Z,73.30
2017-12-13T07:57:23.420Z,72.70
2017-12-13T07:59:50.943Z,72.60
2017-12-13T08:02:18.497Z,72.50
2017-12-13T08:04:46.028Z,72.10
2017-12-13T08:07:13.575Z,71.90
2017-12-13T08:09:41.869Z,70.40
2017-12-13T08:12:09.403Z,70.40
2017-12-13T08:14:37.724Z,70.60
2017-12-13T08:17:05.269Z,70.50
2017-12-13T08:19:32.829Z,70.90
2017-12-13T08:22:00.367Z,71.10
2017-12-13T08:24:28.691Z,69.60
2017-12-13T08:26:56.246Z,69.40
2017-12-13T08:29:24.731Z,67.70
2017-12-13T08:31:53.271Z,67.90
2017-12-13T08:34:20.808Z,65.20
2017-12-13T08:36:49.151Z,65.20
2017-12-13T08:39:17.647Z,64.70
2017-12-13T08:41:45.179Z,63.10
2017-12-13T08:44:12.736Z,59.30
2017-12-13T08:46:40.263Z,59.40
2017-12-13T08:49:07.816Z,57.90
2017-12-13T08:51:36.108Z,57.60
2017-12-13T08:54:03.657Z,57.70
2017-12-13T08:56:31.211Z,57.10
2017-12-13T08:58:59.505Z,54.90
2017-12-13T09:01:28.055Z,54.90
2017-12-13T09:03:55.576Z,50.80
2017-12-13T09:06:23.123Z,51.20
2017-12-13T09:08:50.640Z,50.90
2017-12-13T09:11:18.155Z,49.70
2017-12-13T09:13:45.699Z,50.00
2017-12-13T09:16:13.224Z,49.20
2017-12-13T09:18:40.744Z,49.00
2017-12-13T09:21:09.061Z,49.10
2017-12-13T09:23:36.604Z,49.10
2017-12-13T09:26:04.151Z,48.90
2017-12-13T09:28:31.671Z,47.80
2017-12-13T09:30:59.221Z,48.00
2017-12-13T09:33:26.775Z,49.10
2017-12-13T09:35:54.301Z,48.20
2017-12-13T09:38:22.599Z,47.50
2017-12-13T09:40:51.146Z,47.40
2017-12-13T09:43:19.633Z,47.30
2017-12-13T09:45:47.941Z,47.10
2017-12-13T09:48:15.513Z,47.10
2017-12-13T09:50:43.034Z,47.10
2017-12-13T09:53:11.334Z,47.80
2017-12-13T09:55:38.889Z,47.80
2017-12-13T09:58:06.427Z,46.90
2017-12-13T10:00:33.960Z,47.90
2017-12-13T10:03:02.490Z,47.10
2017-12-13T10:05:30.966Z,46.70
2017-12-13T10:07:58.571Z,46.20
2017-12-13T10:10:27.134Z,46.80
2017-12-13T10:12:54.642Z,47.20
2017-12-13T10:15:22.936Z,47.00
2017-12-13T10:17:52.215Z,46.70
2017-12-13T10:20:19.823Z,46.70
2017-12-13T10:22:47.347Z,47.10
2017-12-13T10:25:16.626Z,46.60
2017-12-13T10:27:44.147Z,46.60
2017-12-13T10:30:13.663Z,45.70
2017-12-13T10:32:41.189Z,45.80
2017-12-13T10:35:08.706Z,46.20
2017-12-13T10:37:38.210Z,46.00
2017-12-13T10:40:06.503Z,45.90
2017-12-13T10:42:34.797Z,44.80
2017-12-13T10:45:02.347Z,44.70
2017-12-13T10:47:29.882Z,45.90
2017-12-13T10:49:57.404Z,45.80
2017-12-13T10:52:25.911Z,45.50
2017-12-13T10:54:53.441Z,45.00
2017-12-13T10:57:22.969Z,45.00
2017-12-13T10:59:50.491Z,45.20
2017-12-13T11:02:18.022Z,44.70
2017-12-13T11:04:45.575Z,44.20
2017-12-13T11:07:13.956Z,44.80
2017-12-13T11:09:42.275Z,44.30
2017-12-13T11:12:09.806Z,44.40
2017-12-13T11:14:37.335Z,43.20
2017-12-13T11:17:04.887Z,42.80
2017-12-13T11:19:32.415Z,42.60
2017-12-13T11:21:59.944Z,43.10
2017-12-13T11:24:27.496Z,42.00
2017-12-13T11:26:55.044Z,41.80
2017-12-13T11:29:23.391Z,40.80
2017-12-13T11:31:51.871Z,40.80
2017-12-13T11:34:19.389Z,40.00
2017-12-13T11:36:46.938Z,40.10
2017-12-13T11:39:14.469Z,39.10
2017-12-13T11:41:42.015Z,40.10
2017-12-13T11:44:09.610Z,40.40
2017-12-13T11:46:37.128Z,39.90
2017-12-13T11:49:04.680Z,39.50
2017-12-13T11:51:32.999Z,40.50
2017-12-13T11:54:00.522Z,40.40
2017-12-13T11:56:28.075Z,40.10
2017-12-13T11:58:56.567Z,39.10
2017-12-13T12:01:24.115Z,38.60
2017-12-13T12:03:51.641Z,38.30
2017-12-13T12:06:19.176Z,38.10
2017-12-13T12:08:46.732Z,38.70
2017-12-13T12:11:14.269Z,39.40
2017-12-13T12:13:44.587Z,38.90
2017-12-13T12:16:12.123Z,38.30
2017-12-13T12:18:39.723Z,39.00
2017-12-13T12:21:08.279Z,38.90
2017-12-13T12:23:35.810Z,38.60
2017-12-13T12:26:04.298Z,38.30
2017-12-13T12:28:31.844Z,38.30
2017-12-13T12:30:59.355Z,38.70
2017-12-13T12:33:28.602Z,38.90
2017-12-13T12:35:56.145Z,38.90
2017-12-13T12:38:23.671Z,38.40
2017-12-13T12:40:51.197Z,37.70
2017-12-13T12:43:18.755Z,37.70
2017-12-13T12:45:46.307Z,38.10
2017-12-13T12:48:13.826Z,37.50
2017-12-13T12:50:41.383Z,37.80
2017-12-13T12:53:08.906Z,38.60
2017-12-13T12:55:36.431Z,37.60
2017-12-13T12:58:03.983Z,37.60
2017-12-13T13:00:31.500Z,37.50
2017-12-13T13:02:59.793Z,37.60
2017-12-13T13:05:27.348Z,37.60
2017-12-13T13:07:54.885Z,37.60
2017-12-13T13:10:22.407Z,37.10
2017-12-13T13:12:49.960Z,37.60
2017-12-13T13:15:17.482Z,38.00
2017-12-13T13:17:45.020Z,36.60
2017-12-13T13:20:13.339Z,36.50
2017-12-13T13:22:40.917Z,36.40
2017-12-13T13:25:08.427Z,35.70
2017-12-13T13:27:35.966Z,36.00
2017-12-13T13:30:04.251Z,34.90
2017-12-13T13:32:31.802Z,34.20
2017-12-13T13:34:59.324Z,33.80
2017-12-13T13:37:26.850Z,33.20
2017-12-13T13:39:54.399Z,34.10
2017-12-13T13:42:22.683Z,34.30
2017-12-13T13:44:52.184Z,34.20
2017-12-13T13:47:19.707Z,34.80
2017-12-13T13:49:47.227Z,34.70
2017-12-13T13:52:14.779Z,34.60
2017-12-13T13:54:42.314Z,34.10
2017-12-13T13:57:09.987Z,33.50
2017-12-13T13:59:40.095Z,34.30
2017-12-13T14:02:07.618Z,34.70
2017-12-13T14:04:35.905Z,35.60
2017-12-13T14:07:03.855Z,35.60
2017-12-13T14:09:31.831Z,35.70
2017-12-13T14:12:01.192Z,36.90
2017-12-13T14:14:29.317Z,38.30
2017-12-13T14:16:57.228Z,41.20
2017-12-13T14:19:25.802Z,43.30
2017-12-13T14:21:53.740Z,45.80
2017-12-13T14:24:22.178Z,49.50
2017-12-13T14:26:51.401Z,57.40
2017-12-13T14:29:19.354Z,57.40
2017-12-13T14:31:47.449Z,60.90
2017-12-13T14:34:15.523Z,62.60
2017-12-13T14:36:43.540Z,64.60
2017-12-13T14:39:11.558Z,66.40
2017-12-13T14:41:39.655Z,68.30
2017-12-13T14:44:07.815Z,69.80
2017-12-13T14:46:36.273Z,69.60
2017-12-13T14:49:04.192Z,68.60
2017-12-13T14:51:33.286Z,68.40
2017-12-13T14:54:01.469Z,67.20
2017-12-13T14:56:29.724Z,65.90
2017-12-13T14:58:57.799Z,66.90
2017-12-13T15:01:25.989Z,68.00
2017-12-13T15:03:53.737Z,69.80
2017-12-13T15:06:21.720Z,68.90
2017-12-13T15:08:49.888Z,68.40
2017-12-13T15:11:19.908Z,69.10
2017-12-13T15:13:48.642Z,70.80
2017-12-13T15:16:17.122Z,70.70
2017-12-13T15:18:45.546Z,71.30
2017-12-13T15:21:13.612Z,70.60
2017-12-13T15:23:41.682Z,71.50
2017-12-13T15:26:09.730Z,71.90
2017-12-13T15:28:38.772Z,71.90
2017-12-13T15:31:06.937Z,71.60
2017-12-13T15:33:35.749Z,72.10
2017-12-13T15:36:03.968Z,70.80
2017-12-13T15:38:32.994Z,70.20
2017-12-13T15:41:01.336Z,70.20
2017-12-13T15:43:29.457Z,68.10
2017-12-13T15:45:57.546Z,68.00
2017-12-13T15:48:25.701Z,67.50
2017-12-13T15:50:53.944Z,66.70
2017-12-13T15:53:24.139Z,65.00
2017-12-13T15:55:52.497Z,64.90
2017-12-13T15:58:20.658Z,66.10
2017-12-13T16:00:48.797Z,64.80
2017-12-13T16:03:17.690Z,67.00
2017-12-13T16:05:45.888Z,66.30
2017-12-13T16:08:13.999Z,66.00
2017-12-13T16:10:42.804Z,65.10
2017-12-13T16:13:11.709Z,66.20
2017-12-13T16:15:39.876Z,66.20
2017-12-13T16:18:07.946Z,66.90
2017-12-13T16:20:36.368Z,66.80
2017-12-13T16:23:04.416Z,66.40
2017-12-13T16:25:32.368Z,66.60
2017-12-13T16:28:00.430Z,66.80
2017-12-13T16:30:28.420Z,66.60
2017-12-13T16:32:57.308Z,66.50
2017-12-13T16:35:25.275Z,66.30
2017-12-13T16:37:54.493Z,66.10
2017-12-13T16:40:22.337Z,65.30
2017-12-13T16:42:50.336Z,65.10
2017-12-13T16:45:18.869Z,65.40
2017-12-13T16:47:47.062Z,65.60
2017-12-13T16:50:15.315Z,67.10
2017-12-13T16:52:43.074Z,66.50
2017-12-13T16:55:13.944Z,67.40
2017-12-13T16:57:42.373Z,67.50
2017-12-13T17:00:11.382Z,69.40
2017-12-13T17:02:40.213Z,68.40
2017-12-13T17:05:09.406Z,66.60
2017-12-13T17:07:38.402Z,67.60
2017-12-13T17:10:06.527Z,67.50
2017-12-13T17:12:34.361Z,67.10
2017-12-13T17:15:02.191Z,68.10
2017-12-13T17:17:30.251Z,68.20
2017-12-13T17:19:58.302Z,67.70
2017-12-13T17:22:26.391Z,67.10
2017-12-13T17:24:54.672Z,67.50
2017-12-13T17:27:22.927Z,67.80
2017-12-13T17:29:50.754Z,68.70
2017-12-13T17:32:19.244Z,68.40
2017-12-13T17:34:48.386Z,67.80
2017-12-13T17:37:16.642Z,67.70
2017-12-13T17:39:45.050Z,67.80
2017-12-13T17:42:12.991Z,66.90
2017-12-13T17:44:41.061Z,67.20
2017-12-13T17:47:09.036Z,66.70
2017-12-13T17:49:37.092Z,66.60
2017-12-13T17:52:05.068Z,65.80
2017-12-13T17:54:33.156Z,66.30
2017-12-13T17:57:01.192Z,67.10
2017-12-13T17:59:29.275Z,66.60
2017-12-13T18:01:57.282Z,67.20
2017-12-13T18:04:25.842Z,66.40
2017-12-13T18:06:54.078Z,67.00
2017-12-13T18:09:22.989Z,66.90
2017-12-13T18:11:52.099Z,66.90
2017-12-13T18:14:20.337Z,67.10
2017-12-13T18:16:48.331Z,66.70
2017-12-13T18:19:16.517Z,67.20
2017-12-13T18:21:45.343Z,67.00
2017-12-13T18:24:13.429Z,67.00
2017-12-13T18:26:42.577Z,67.00
2017-12-13T18:29:10.605Z,66.90
2017-12-13T18:31:39.122Z,66.80
2017-12-13T18:34:07.807Z,67.20
2017-12-13T18:36:36.184Z,67.30
2017-12-13T18:39:04.421Z,67.10
2017-12-13T18:41:33.147Z,67.60
2017-12-13T18:44:01.420Z,67.60
2017-12-13T18:46:29.385Z,68.20
2017-12-13T18:48:57.422Z,68.00
2017-12-13T18:51:26.459Z,67.30
2017-12-13T18:53:55.470Z,68.10
2017-12-13T18:56:24.161Z,68.40
2017-12-13T18:58:53.228Z,68.30
2017-12-13T19:01:21.286Z,68.00
2017-12-13T19:03:50.290Z,68.00
2017-12-13T19:06:18.458Z,68.20
2017-12-13T19:08:47.524Z,68.10
2017-12-13T19:11:16.347Z,67.60
2017-12-13T19:13:44.717Z,67.50
2017-12-13T19:16:13.292Z,67.60
2017-12-13T19:18:41.059Z,67.20
2017-12-13T19:21:08.966Z,66.30
2017-12-13T19:23:36.971Z,66.70
2017-12-13T19:26:05.066Z,66.50
2017-12-13T19:28:33.098Z,67.30
2017-12-13T19:31:02.157Z,67.10
2017-12-13T19:33:30.080Z,67.00
2017-12-13T19:35:59.150Z,67.40
2017-12-13T19:38:29.328Z,67.30
2017-12-13T19:40:57.431Z,68.30
2017-12-13T19:43:25.044Z,68.80
2017-12-13T19:45:53.083Z,68.00
2017-12-13T19:48:21.948Z,70.00
2017-12-13T19:50:50.004Z,69.80
2017-12-13T19:53:19.836Z,69.90
2017-12-13T19:55:47.866Z,71.40
2017-12-13T19:58:15.942Z,72.00
2017-12-13T20:00:44.533Z,72.00
2017-12-13T20:03:13.420Z,72.10
2017-12-13T20:05:41.786Z,72.10
2017-12-13T20:08:10.906Z,72.90
2017-12-13T20:10:38.975Z,72.80
2017-12-13T20:13:08.978Z,71.80
2017-12-13T20:15:37.179Z,71.70
2017-12-13T20:18:05.177Z,72.20
2017-12-13T20:20:33.500Z,72.40
2017-12-13T20:23:01.449Z,72.00
2017-12-13T20:25:30.435Z,71.90
2017-12-13T20:27:59.452Z,71.80
2017-12-13T20:30:27.978Z,71.80
2017-12-13T20:32:56.817Z,72.90
2017-12-13T20:35:26.867Z,72.80
2017-12-13T20:37:54.887Z,71.80
2017-12-13T20:40:23.135Z,73.00
2017-12-13T20:42:52.017Z,72.50
2017-12-13T20:45:21.462Z,73.00
2017-12-13T20:47:55.983Z,73.00
2017-12-13T20:53:20.783Z,75.10
2017-12-13T20:55:52.501Z,75.00
2017-12-13T20:58:31.400Z,74.50
2017-12-13T21:01:11.678Z,75.10
2017-12-13T21:03:50.081Z,75.70
2017-12-13T21:06:24.097Z,76.40
2017-12-13T21:08:54.008Z,75.70
2017-12-13T21:11:22.020Z,75.90
2017-12-13T21:13:51.154Z,76.80
2017-12-13T21:16:29.172Z,76.80
2017-12-13T21:19:07.168Z,76.20
2017-12-13T21:21:39.907Z,76.20
2017-12-13T21:24:09.050Z,77.00
2017-12-13T21:26:47.599Z,77.00
2017-12-13T21:29:28.528Z,77.10
2017-12-13T21:32:08.259Z,76.00
2017-12-13T21:34:43.717Z,76.40
2017-12-13T21:37:28.487Z,77.30
2017-12-13T21:39:56.957Z,76.30
2017-12-13T21:42:25.031Z,75.80
2017-12-13T21:44:53.224Z,75.20
2017-12-13T21:47:21.772Z,74.80
2017-12-13T21:49:49.626Z,75.20
2017-12-13T21:52:17.944Z,75.00
2017-12-13T21:54:45.465Z,74.90
2017-12-13T21:57:13.016Z,73.80
2017-12-13T21:59:41.315Z,74.30
2017-12-13T22:02:08.868Z,74.30
2017-12-13T22:04:37.361Z,75.60
2017-12-13T22:07:05.849Z,76.40
2017-12-13T22:09:33.402Z,76.70
2017-12-13T22:12:00.935Z,77.20
2017-12-13T22:14:28.487Z,77.40
2017-12-13T22:16:56.020Z,76.90
2017-12-13T22:19:23.576Z,76.80
2017-12-13T22:21:51.102Z,76.70
2017-12-13T22:24:18.655Z,75.20
2017-12-13T22:26:46.197Z,75.90
2017-12-13T22:29:13.751Z,76.00
2017-12-13T22:31:41.283Z,76.10
2017-12-13T22:34:08.799Z,77.10
2017-12-13T22:36:36.359Z,77.60
2017-12-13T22:39:03.911Z,77.50
2017-12-13T22:41:31.461Z,79.00
2017-12-13T22:43:58.981Z,79.20
2017-12-13T22:46:26.548Z,79.10
2017-12-13T22:48:54.832Z,77.70
2017-12-13T22:51:22.400Z,77.60
2017-12-13T22:53:49.923Z,78.20
2017-12-13T22:56:17.474Z,77.50
2017-12-13T22:58:45.762Z,77.50
2017-12-13T23:01:13.322Z,77.40
2017-12-13T23:03:41.626Z,78.90
2017-12-13T23:06:09.156Z,79.00
2017-12-13T23:08:37.495Z,79.40
2017-12-13T23:11:05.083Z,79.30
2017-12-13T23:13:32.645Z,79.20
2017-12-13T23:16:00.171Z,78.80
2017-12-13T23:18:27.731Z,78.60
2017-12-13T23:20:55.254Z,79.20
2017-12-13T23:23:22.806Z,78.40
2017-12-13T23:25:50.348Z,79.00
2017-12-13T23:28:18.931Z,78.90
2017-12-13T23:30:47.241Z,79.00
2017-12-13T23:33:14.767Z,78.90
2017-12-13T23:35:42.331Z,78.30
2017-12-13T23:38:09.871Z,78.30
2017-12-13T23:40:38.219Z,80.00
2017-12-13T23:43:05.847Z,79.90
2017-12-13T23:45:33.431Z,80.00
2017-12-13T23:48:01.916Z,79.10
2017-12-13T23:50:29.483Z,78.90
2017-12-13T23:52:57.038Z,79.00
2017-12-13T23:55:25.548Z,79.70
2017-12-13T23:57:53.095Z,79.70
